Time;durP1;ratioP1;P1;durP2;ratioP2;P2;SDS_P1;SDS_P2;PMS_P1;PMS_P2;Temp;Humidity;BMP_temperature;BMP_pressure;BME280_temperature;BME280_humidity;BME280_pressure;Samples;Min_cycle;Max_cycle;Signal;HPM_P1;HPM_P2
2024/03/21 00:01:40;;;;;;;2.95;1.77;;;22.00;52.40;;;;;;5070909;28;20027;-64
2024/03/21 00:04:06;;;;;;;3.92;1.65;;;22.00;52.40;;;;;;5071131;28;20025;-63
2024/03/21 00:06:31;;;;;;;3.13;1.80;;;22.00;52.40;;;;;;5071158;28;20142;-64
2024/03/21 00:08:57;;;;;;;4.00;1.88;;;22.00;52.40;;;;;;5070979;28;20056;-64
2024/03/21 00:11:23;;;;;;;2.53;1.50;;;22.00;52.40;;;;;;5070198;28;20056;-64
2024/03/21 00:13:49;;;;;;;3.47;1.80;;;22.00;52.40;;;;;;5071047;28;20123;-64
2024/03/21 00:16:14;;;;;;;2.55;1.50;;;22.00;52.40;;;;;;5069653;28;20029;-64
2024/03/21 00:18:42;;;;;;;3.55;1.80;;;22.00;52.40;;;;;;5071159;28;20036;-65
2024/03/21 00:21:07;;;;;;;2.85;1.60;;;22.00;52.40;;;;;;5070928;28;20035;-64
2024/03/21 00:23:33;;;;;;;2.50;1.65;;;21.90;52.30;;;;;;5070408;28;20386;-64
2024/03/21 00:26:02;;;;;;;3.83;1.92;;;21.90;52.30;;;;;;5069502;28;20411;-63
2024/03/21 00:28:29;;;;;;;3.90;1.90;;;21.90;52.30;;;;;;5070892;28;20020;-64
2024/03/21 00:30:56;;;;;;;2.92;1.70;;;21.90;52.40;;;;;;5069829;28;20112;-64
2024/03/21 00:33:22;;;;;;;3.15;1.52;;;21.90;52.40;;;;;;5070559;28;20024;-64
2024/03/21 00:35:48;;;;;;;3.60;1.80;;;21.90;52.40;;;;;;5070519;28;20032;-64
2024/03/21 00:38:14;;;;;;;3.15;1.55;;;21.90;52.40;;;;;;5070429;28;20024;-64
2024/03/21 00:40:39;;;;;;;2.88;1.55;;;21.90;52.40;;;;;;5069528;28;20029;-64
2024/03/21 00:43:05;;;;;;;2.78;1.50;;;21.90;52.40;;;;;;5070440;28;20105;-64
2024/03/21 00:45:30;;;;;;;2.97;1.70;;;21.90;52.40;;;;;;5069928;28;20021;-64
2024/03/21 00:47:56;;;;;;;3.22;1.80;;;21.90;52.40;;;;;;5070450;28;20365;-63
2024/03/21 00:50:22;;;;;;;3.17;1.70;;;21.90;52.40;;;;;;5070300;28;20025;-64
2024/03/21 00:52:48;;;;;;;3.10;1.77;;;21.90;52.40;;;;;;5070440;28;20032;-64
2024/03/21 00:55:13;;;;;;;3.50;1.80;;;21.90;52.40;;;;;;5069207;28;20028;-64
2024/03/21 00:57:39;;;;;;;2.50;1.70;;;21.90;52.40;;;;;;5070351;28;20094;-64
2024/03/21 01:00:07;;;;;;;2.92;1.65;;;21.90;52.40;;;;;;5070157;28;20033;-63
2024/03/21 01:02:34;;;;;;;3.10;1.77;;;21.90;52.40;;;;;;5068896;28;20107;-64
2024/03/21 01:05:00;;;;;;;2.90;1.50;;;21.80;52.30;;;;;;5069769;28;20017;-64
2024/03/21 01:07:25;;;;;;;3.45;1.92;;;21.80;52.30;;;;;;5070335;28;20021;-64
2024/03/21 01:09:51;;;;;;;3.00;1.70;;;21.80;52.30;;;;;;5070110;28;20047;-65
2024/03/21 01:12:17;;;;;;;2.97;1.67;;;21.80;52.30;;;;;;5068831;28;20033;-64
2024/03/21 01:14:42;;;;;;;2.53;1.60;;;21.80;52.30;;;;;;5069426;28;20147;-64
2024/03/21 01:17:08;;;;;;;2.75;1.60;;;21.80;52.30;;;;;;5069723;28;20032;-64
2024/03/21 01:19:35;;;;;;;3.22;1.70;;;21.80;52.30;;;;;;5069916;28;20971;-64
2024/03/21 01:22:00;;;;;;;3.65;1.60;;;21.80;52.30;;;;;;5070036;28;20434;-64
2024/03/21 01:24:26;;;;;;;3.95;1.70;;;21.80;52.40;;;;;;5069999;28;20021;-63
2024/03/21 01:26:52;;;;;;;3.83;1.70;;;21.80;52.40;;;;;;5070500;28;20028;-64
2024/03/21 01:29:17;;;;;;;2.33;1.40;;;21.80;52.40;;;;;;5073992;28;20108;-64
2024/03/21 01:31:43;;;;;;;2.60;1.58;;;21.80;52.40;;;;;;5073469;28;20837;-64
2024/03/21 01:34:09;;;;;;;2.75;1.40;;;21.80;52.40;;;;;;5073866;28;20040;-64
2024/03/21 01:36:44;;;;;;;3.25;1.80;;;21.80;52.40;;;;;;5074028;28;20104;-64
2024/03/21 01:39:10;;;;;;;3.25;1.70;;;21.80;52.40;;;;;;5064235;28;20412;-64
2024/03/21 01:41:36;;;;;;;3.05;1.50;;;21.80;52.40;;;;;;5072503;28;20028;-64
2024/03/21 01:44:02;;;;;;;2.38;1.50;;;21.70;52.30;;;;;;5073740;28;20034;-63
2024/03/21 01:46:28;;;;;;;2.55;1.52;;;21.70;52.30;;;;;;5073517;28;20475;-65
2024/03/21 01:48:54;;;;;;;2.97;1.50;;;21.80;52.40;;;;;;5073859;28;20036;-65
2024/03/21 01:51:26;;;;;;;2.90;1.58;;;21.80;52.40;;;;;;5073494;28;20031;-64
2024/03/21 01:53:55;;;;;;;2.05;1.40;;;21.80;52.40;;;;;;5073397;28;20221;-64
2024/03/21 01:56:22;;;;;;;2.55;1.40;;;21.70;52.30;;;;;;5072658;28;20020;-63
2024/03/21 01:58:47;;;;;;;2.63;1.30;;;21.70;52.30;;;;;;5073438;28;20029;-64
2024/03/21 02:01:21;;;;;;;3.17;1.63;;;21.70;52.30;;;;;;5073344;28;20387;-63
2024/03/21 02:03:47;;;;;;;2.20;1.30;;;21.70;52.30;;;;;;5073657;28;20476;-63
2024/03/21 02:06:13;;;;;;;2.28;1.35;;;21.70;52.30;;;;;;5073429;28;20024;-63
2024/03/21 02:08:39;;;;;;;3.83;1.40;;;21.70;52.30;;;;;;5073520;28;20098;-63
2024/03/21 02:11:04;;;;;;;2.15;1.38;;;21.70;52.30;;;;;;5072117;28;20107;-63
2024/03/21 02:13:30;;;;;;;2.90;1.58;;;21.70;52.30;;;;;;5073385;28;20036;-64
2024/03/21 02:15:55;;;;;;;2.47;1.30;;;21.70;52.30;;;;;;5054533;28;20112;-64
2024/03/21 02:18:21;;;;;;;2.05;1.33;;;21.70;52.30;;;;;;5072911;28;20021;-64
2024/03/21 02:20:47;;;;;;;2.45;1.40;;;21.70;52.30;;;;;;5073290;28;20027;-64
2024/03/21 02:23:12;;;;;;;2.22;1.40;;;21.70;52.30;;;;;;5073233;28;20510;-65
2024/03/21 02:25:38;;;;;;;2.53;1.40;;;21.70;52.30;;;;;;5072311;28;20028;-64
2024/03/21 02:28:06;;;;;;;3.00;1.30;;;21.70;52.40;;;;;;5072866;28;20020;-64
2024/03/21 02:30:32;;;;;;;3.03;1.50;;;21.60;52.30;;;;;;5073135;28;20029;-64
2024/03/21 02:32:58;;;;;;;2.40;1.48;;;21.70;52.30;;;;;;5072183;28;20017;-65
2024/03/21 02:35:24;;;;;;;2.20;1.30;;;21.70;52.30;;;;;;5072965;28;20357;-64
2024/03/21 02:37:50;;;;;;;1.90;1.20;;;21.70;52.30;;;;;;5071994;28;20071;-65
2024/03/21 02:40:15;;;;;;;2.40;1.33;;;21.60;52.30;;;;;;5072148;28;20081;-64
2024/03/21 02:42:41;;;;;;;2.55;1.50;;;21.70;52.30;;;;;;5071695;28;20040;-64
2024/03/21 02:45:07;;;;;;;2.08;1.20;;;21.70;52.30;;;;;;5072683;28;20063;-64
2024/03/21 02:47:34;;;;;;;2.88;1.30;;;21.60;52.80;;;;;;5072452;28;20529;-64
2024/03/21 02:50:00;;;;;;;2.88;1.67;;;21.60;52.30;;;;;;5072654;28;20032;-64
2024/03/21 02:52:26;;;;;;;1.95;1.20;;;21.60;52.30;;;;;;5072489;28;20484;-64
2024/03/21 02:54:51;;;;;;;2.25;1.40;;;21.60;52.30;;;;;;5072505;28;20028;-65
2024/03/21 02:57:17;;;;;;;2.15;1.20;;;21.60;52.30;;;;;;5071423;28;20555;-64
2024/03/21 02:59:42;;;;;;;2.42;1.30;;;21.60;52.30;;;;;;5072320;28;20507;-64
2024/03/21 03:02:10;;;;;;;3.03;1.30;;;21.60;52.30;;;;;;5071876;28;20020;-65
2024/03/21 03:04:35;;;;;;;1.95;1.30;;;21.60;52.30;;;;;;5072391;28;20475;-64
2024/03/21 03:07:01;;;;;;;2.10;1.25;;;21.60;52.30;;;;;;5072270;28;20089;-64
2024/03/21 03:09:26;;;;;;;1.88;1.23;;;21.60;52.30;;;;;;5071963;28;20388;-64
2024/03/21 03:11:52;;;;;;;2.28;1.48;;;21.60;52.30;;;;;;5071134;28;20032;-64
2024/03/21 03:14:18;;;;;;;2.17;1.20;;;21.60;52.30;;;;;;5072063;28;20037;-64
2024/03/21 03:16:43;;;;;;;2.00;1.30;;;21.60;52.30;;;;;;5071940;28;20039;-64
2024/03/21 03:19:09;;;;;;;2.22;1.15;;;21.60;52.30;;;;;;5072142;28;20471;-64
2024/03/21 03:21:35;;;;;;;2.50;1.40;;;21.60;52.30;;;;;;5071928;28;20495;-64
2024/03/21 03:24:00;;;;;;;2.40;1.30;;;21.60;52.40;;;;;;5072034;28;20036;-64
2024/03/21 03:26:26;;;;;;;1.85;1.30;;;21.50;52.30;;;;;;5058440;28;20032;-64
2024/03/21 03:28:51;;;;;;;1.88;1.27;;;21.60;52.30;;;;;;5071807;28;20059;-64
2024/03/21 03:31:17;;;;;;;1.58;1.20;;;21.50;52.30;;;;;;5071943;28;20352;-64
2024/03/21 03:36:27;;;;;;;1.90;1.20;;;21.50;52.30;;;;;;5071872;28;20035;-64
2024/03/21 03:38:53;;;;;;;2.70;1.40;;;21.50;52.30;;;;;;5071476;28;20526;-64
2024/03/21 03:41:19;;;;;;;2.42;1.35;;;21.50;52.30;;;;;;5070528;28;20025;-63
2024/03/21 03:43:45;;;;;;;1.83;1.17;;;21.50;52.40;;;;;;5070737;28;20033;-64
2024/03/21 03:46:11;;;;;;;1.67;1.15;;;21.50;52.30;;;;;;5053523;28;20027;-64
2024/03/21 03:48:36;;;;;;;1.95;1.30;;;21.50;52.30;;;;;;5070674;28;20107;-64
2024/03/21 03:51:02;;;;;;;2.10;1.20;;;21.50;52.30;;;;;;5071133;28;20031;-63
2024/03/21 03:53:28;;;;;;;2.45;1.23;;;21.50;52.30;;;;;;5071185;28;20907;-64
2024/03/21 03:55:54;;;;;;;2.50;1.40;;;21.50;52.40;;;;;;5071593;28;20121;-64
2024/03/21 03:58:20;;;;;;;2.30;1.40;;;21.50;52.80;;;;;;5070029;28;20028;-64
2024/03/21 04:00:54;;;;;;;2.10;1.20;;;21.50;52.40;;;;;;5071130;28;20039;-64
2024/03/21 04:03:20;;;;;;;1.85;1.15;;;21.50;52.30;;;;;;5070901;28;20410;-64
2024/03/21 04:06:01;;;;;;;1.90;1.20;;;21.50;52.40;;;;;;5070931;28;20032;-63
2024/03/21 04:08:27;;;;;;;1.65;1.08;;;21.50;52.40;;;;;;5070685;28;20026;-64
2024/03/21 04:10:54;;;;;;;2.00;1.30;;;21.50;52.30;;;;;;5070523;28;20063;-64
2024/03/21 04:13:20;;;;;;;2.20;1.20;;;21.40;52.30;;;;;;5069391;28;20035;-64
2024/03/21 04:15:53;;;;;;;2.05;1.20;;;21.40;52.30;;;;;;5070945;28;20032;-64
2024/03/21 04:18:19;;;;;;;1.75;1.10;;;21.40;52.80;;;;;;5070389;28;20420;-64
2024/03/21 04:20:45;;;;;;;1.88;1.20;;;21.40;52.30;;;;;;5070777;28;20123;-64
2024/03/21 04:23:11;;;;;;;1.85;1.20;;;21.40;52.30;;;;;;5070313;28;20046;-64
2024/03/21 04:25:36;;;;;;;1.70;1.20;;;21.40;52.30;;;;;;5070413;28;20024;-65
2024/03/21 04:28:02;;;;;;;2.03;1.20;;;21.40;52.30;;;;;;5069296;28;20464;-65
2024/03/21 04:30:28;;;;;;;1.38;1.05;;;21.40;52.30;;;;;;5070491;28;20115;-65
2024/03/21 04:32:54;;;;;;;1.60;1.10;;;21.40;52.30;;;;;;5052109;28;20974;-65
2024/03/21 04:35:19;;;;;;;1.83;1.13;;;21.40;52.30;;;;;;5070506;28;20487;-64
2024/03/21 04:37:47;;;;;;;1.70;1.10;;;21.40;52.30;;;;;;5070411;28;20054;-64
2024/03/21 04:40:12;;;;;;;2.25;1.35;;;21.40;52.30;;;;;;5070344;28;20026;-64
2024/03/21 04:42:38;;;;;;;2.75;1.23;;;21.40;52.30;;;;;;5069061;28;20116;-64
2024/03/21 04:45:05;;;;;;;2.25;1.25;;;21.40;52.30;;;;;;5070317;28;20377;-64
2024/03/21 04:47:31;;;;;;;1.95;1.10;;;21.40;52.30;;;;;;5070065;28;20056;-64
2024/03/21 04:49:57;;;;;;;1.63;1.02;;;21.40;52.40;;;;;;5070349;28;20079;-64
2024/03/21 04:52:24;;;;;;;2.50;1.13;;;21.40;52.30;;;;;;5070138;28;20020;-64
2024/03/21 04:54:50;;;;;;;1.23;1.00;;;21.40;52.30;;;;;;5070235;28;20017;-64
2024/03/21 04:57:16;;;;;;;1.88;1.25;;;21.40;52.30;;;;;;5068916;28;20060;-64
2024/03/21 04:59:42;;;;;;;2.30;1.30;;;21.40;52.30;;;;;;5069689;28;20154;-64
2024/03/21 05:02:08;;;;;;;1.90;1.10;;;21.40;52.40;;;;;;5069602;28;20498;-64
2024/03/21 05:04:33;;;;;;;1.60;1.10;;;21.40;52.40;;;;;;5070146;28;20016;-64
2024/03/21 05:06:59;;;;;;;1.85;1.27;;;21.40;52.40;;;;;;5070286;28;21001;-63
2024/03/21 05:09:24;;;;;;;2.15;1.20;;;21.40;52.40;;;;;;5070078;28;20043;-64
2024/03/21 05:11:50;;;;;;;1.73;1.17;;;21.40;52.30;;;;;;5069684;28;20099;-65
2024/03/21 05:14:16;;;;;;;2.30;1.20;;;21.40;52.40;;;;;;5069507;28;20037;-64
2024/03/21 05:16:44;;;;;;;1.98;1.23;;;21.40;52.40;;;;;;5070196;28;20025;-64
2024/03/21 05:19:11;;;;;;;1.38;1.00;;;21.40;52.30;;;;;;5069308;28;20032;-64
2024/03/21 05:21:36;;;;;;;2.03;1.20;;;21.30;52.30;;;;;;5070093;28;20209;-64
2024/03/21 05:24:02;;;;;;;1.90;1.20;;;21.30;52.30;;;;;;5069912;28;20095;-64
2024/03/21 05:26:28;;;;;;;2.08;1.30;;;21.30;52.30;;;;;;5069485;28;20029;-64
2024/03/21 05:28:53;;;;;;;2.53;1.40;;;21.40;52.40;;;;;;5069006;28;20597;-64
2024/03/21 05:31:24;;;;;;;1.92;1.20;;;21.40;52.40;;;;;;5069639;28;20029;-64
2024/03/21 05:33:50;;;;;;;1.60;1.05;;;21.30;52.30;;;;;;5069420;28;20107;-66
2024/03/21 05:36:16;;;;;;;1.48;1.02;;;21.30;52.30;;;;;;5067229;28;20514;-66
2024/03/21 05:38:46;;;;;;;1.95;1.30;;;21.30;52.30;;;;;;5069666;28;20032;-67
2024/03/21 05:41:11;;;;;;;1.75;1.00;;;21.30;52.30;;;;;;5068482;28;20074;-67
2024/03/21 05:43:37;;;;;;;1.75;1.00;;;21.30;52.30;;;;;;5068700;28;20028;-67
2024/03/21 05:46:04;;;;;;;1.48;1.00;;;21.30;52.30;;;;;;5069753;28;20031;-67
2024/03/21 05:48:31;;;;;;;1.67;1.00;;;21.30;52.40;;;;;;5069120;28;20384;-66
2024/03/21 05:50:56;;;;;;;2.15;1.20;;;21.30;52.30;;;;;;5069446;28;20445;-67
2024/03/21 05:53:22;;;;;;;1.80;1.10;;;21.30;52.30;;;;;;5069754;28;20078;-67
2024/03/21 05:55:58;;;;;;;2.15;1.20;;;21.30;52.40;;;;;;5069700;28;20380;-67
2024/03/21 05:58:24;;;;;;;1.67;1.05;;;21.30;52.40;;;;;;5067548;28;20184;-67
2024/03/21 06:01:03;;;;;;;1.67;1.10;;;21.30;52.40;;;;;;5069472;28;20051;-67
2024/03/21 06:03:29;;;;;;;1.77;1.00;;;21.30;52.40;;;;;;5050346;28;20104;-67
2024/03/21 06:05:55;;;;;;;1.52;1.00;;;21.30;52.40;;;;;;5069613;28;20028;-67
2024/03/21 06:08:21;;;;;;;1.77;1.20;;;21.30;52.40;;;;;;5069513;28;20036;-67
2024/03/21 06:10:46;;;;;;;2.22;1.05;;;21.30;52.50;;;;;;5069612;28;20530;-67
2024/03/21 06:13:12;;;;;;;2.33;1.35;;;21.30;52.50;;;;;;5070078;28;20040;-67
2024/03/21 06:15:37;;;;;;;1.50;1.10;;;21.30;52.60;;;;;;5073243;28;20028;-67
2024/03/21 06:18:04;;;;;;;1.10;0.90;;;21.30;52.50;;;;;;5072820;28;20028;-66
2024/03/21 06:20:30;;;;;;;2.30;1.02;;;21.30;52.50;;;;;;5072712;28;20045;-66
2024/03/21 06:22:55;;;;;;;1.70;1.10;;;21.30;52.50;;;;;;5072848;28;20115;-67
2024/03/21 06:25:21;;;;;;;1.70;1.00;;;21.30;52.60;;;;;;5073086;28;20488;-66
2024/03/21 06:27:48;;;;;;;1.45;0.90;;;21.30;52.50;;;;;;5071576;28;20021;-67
2024/03/21 06:30:14;;;;;;;1.73;1.13;;;21.30;52.50;;;;;;5072864;28;20404;-66
2024/03/21 06:32:40;;;;;;;1.40;1.00;;;21.30;52.50;;;;;;5072306;28;20451;-67
2024/03/21 06:35:06;;;;;;;1.92;1.10;;;21.30;52.50;;;;;;5072138;28;20440;-66
2024/03/21 06:37:33;;;;;;;1.75;0.90;;;21.30;52.50;;;;;;5073011;28;20024;-66
2024/03/21 06:39:59;;;;;;;2.35;1.10;;;21.30;52.60;;;;;;5072652;28;20029;-66
2024/03/21 06:42:25;;;;;;;1.42;1.05;;;21.30;52.60;;;;;;5072795;28;20020;-67
2024/03/21 06:44:51;;;;;;;2.90;1.10;;;21.30;52.60;;;;;;5071782;28;20039;-64
2024/03/21 06:47:16;;;;;;;1.52;1.00;;;21.30;53.10;;;;;;5072716;28;20025;-64
2024/03/21 06:49:42;;;;;;;1.63;1.08;;;21.30;52.60;;;;;;5072372;28;20028;-64
2024/03/21 06:52:07;;;;;;;2.03;1.10;;;21.30;52.90;;;;;;5072820;28;20032;-64
2024/03/21 06:54:33;;;;;;;2.03;1.00;;;21.20;52.60;;;;;;5072680;28;20089;-64
2024/03/21 06:57:00;;;;;;;1.65;1.00;;;21.20;52.60;;;;;;5072553;28;20109;-64
2024/03/21 06:59:25;;;;;;;1.35;1.00;;;21.30;52.60;;;;;;5071479;28;20097;-64
2024/03/21 07:01:51;;;;;;;1.42;1.10;;;21.20;52.60;;;;;;5072679;28;20025;-64
2024/03/21 07:04:17;;;;;;;1.77;0.90;;;21.20;52.60;;;;;;5072071;28;20047;-65
2024/03/21 07:06:42;;;;;;;2.25;1.00;;;21.20;52.60;;;;;;5072287;28;20081;-64
2024/03/21 07:09:09;;;;;;;1.75;1.10;;;21.20;52.60;;;;;;5072115;28;20020;-64
2024/03/21 07:11:35;;;;;;;1.80;1.00;;;21.20;52.60;;;;;;5072200;28;20039;-64
2024/03/21 07:14:02;;;;;;;1.40;1.00;;;21.20;52.60;;;;;;5071276;28;20040;-65
2024/03/21 07:16:28;;;;;;;1.98;1.00;;;21.20;52.60;;;;;;5071906;28;20038;-64
2024/03/21 07:18:53;;;;;;;2.35;1.20;;;21.20;52.60;;;;;;5071710;28;20115;-64
2024/03/21 07:21:19;;;;;;;1.70;0.80;;;21.20;52.70;;;;;;5072005;28;20412;-64
2024/03/21 07:23:45;;;;;;;1.67;0.98;;;21.20;52.60;;;;;;5071978;28;20066;-64
2024/03/21 07:26:11;;;;;;;1.35;0.90;;;21.20;52.60;;;;;;5071576;28;20033;-64
2024/03/21 07:28:36;;;;;;;1.13;0.90;;;21.20;52.70;;;;;;5070425;28;20456;-64
2024/03/21 07:31:02;;;;;;;1.60;0.90;;;21.20;52.70;;;;;;5071938;28;20491;-64
2024/03/21 07:33:27;;;;;;;1.58;0.90;;;21.20;52.70;;;;;;5071256;28;20078;-65
2024/03/21 07:35:57;;;;;;;1.20;0.90;;;21.20;52.70;;;;;;5071858;28;20021;-63
2024/03/21 07:38:23;;;;;;;1.27;0.90;;;21.20;52.70;;;;;;5071648;28;20021;-63
2024/03/21 07:40:59;;;;;;;1.48;1.00;;;21.20;52.60;;;;;;5071549;28;20432;-65
2024/03/21 07:43:25;;;;;;;1.83;1.17;;;21.20;52.70;;;;;;5069781;28;20024;-64
2024/03/21 07:45:51;;;;;;;1.02;0.80;;;21.20;52.70;;;;;;5071490;28;20025;-64
2024/03/21 07:48:17;;;;;;;2.05;1.10;;;21.20;52.70;;;;;;5071024;28;20912;-63
2024/03/21 07:50:43;;;;;;;1.75;0.90;;;21.20;52.70;;;;;;5071251;28;20120;-64
2024/03/21 07:53:09;;;;;;;1.75;0.93;;;21.20;52.80;;;;;;5071900;28;20067;-64
2024/03/21 07:55:34;;;;;;;1.60;1.10;;;21.20;52.90;;;;;;5073491;28;20112;-67
2024/03/21 07:58:01;;;;;;;1.42;0.90;;;21.20;53.00;;;;;;5074534;28;20028;-67
2024/03/21 08:00:30;;;;;;;2.03;1.10;;;21.30;53.10;;;;;;5070677;28;20029;-68
2024/03/21 08:02:55;;;;;;;1.83;1.00;;;21.30;53.10;;;;;;5073392;28;20106;-67
2024/03/21 08:05:21;;;;;;;2.40;1.00;;;21.30;53.10;;;;;;5077338;28;20107;-67
2024/03/21 08:07:47;;;;;;;1.98;1.20;;;21.40;53.10;;;;;;5075351;28;20027;-68
2024/03/21 08:10:13;;;;;;;1.52;1.05;;;21.40;53.10;;;;;;5071944;28;20043;-68
2024/03/21 08:12:38;;;;;;;1.58;1.00;;;21.50;53.00;;;;;;5080131;28;20024;-67
2024/03/21 08:15:04;;;;;;;1.48;1.00;;;21.50;52.90;;;;;;5056004;28;21110;-68
2024/03/21 08:17:30;;;;;;;1.65;1.00;;;21.60;53.00;;;;;;5070514;28;20036;-68
2024/03/21 08:19:56;;;;;;;3.10;1.20;;;21.60;53.10;;;;;;5070408;28;20047;-68
2024/03/21 08:22:22;;;;;;;1.35;0.80;;;21.70;53.10;;;;;;5070874;28;20023;-67
2024/03/21 08:24:48;;;;;;;2.35;1.15;;;21.70;53.20;;;;;;5070878;28;20079;-68
2024/03/21 08:27:19;;;;;;;2.08;1.00;;;21.80;53.20;;;;;;5070778;28;20527;-68
2024/03/21 08:29:49;;;;;;;1.27;1.00;;;21.90;52.90;;;;;;5070088;28;20024;-67
2024/03/21 08:32:17;;;;;;;1.77;1.00;;;22.10;52.70;;;;;;5070641;28;20032;-67
2024/03/21 08:34:44;;;;;;;1.25;0.88;;;22.10;52.60;;;;;;5070285;28;20036;-68
2024/03/21 08:37:10;;;;;;;1.27;0.95;;;22.10;52.50;;;;;;5050414;28;20032;-67
2024/03/21 08:39:35;;;;;;;1.60;1.00;;;22.20;52.60;;;;;;5070362;28;20456;-68
2024/03/21 08:42:01;;;;;;;1.80;0.90;;;22.20;52.60;;;;;;5070319;28;20024;-68
2024/03/21 08:44:26;;;;;;;1.10;0.85;;;22.30;52.50;;;;;;5069413;28;20024;-67
2024/03/21 08:46:52;;;;;;;1.67;0.98;;;22.30;52.40;;;;;;5070255;28;20031;-68
2024/03/21 08:49:18;;;;;;;1.48;1.08;;;22.40;52.20;;;;;;5069916;28;20028;-67
2024/03/21 08:51:44;;;;;;;1.75;1.10;;;22.40;52.00;;;;;;5052260;28;20528;-68
2024/03/21 08:54:09;;;;;;;1.33;0.90;;;22.50;52.20;;;;;;5070225;28;20369;-68
2024/03/21 08:56:35;;;;;;;1.73;0.90;;;22.50;51.80;;;;;;5070338;28;20048;-67
2024/03/21 08:59:01;;;;;;;1.65;1.10;;;22.60;51.70;;;;;;5069020;28;20085;-67
2024/03/21 09:01:26;;;;;;;1.60;1.02;;;22.60;51.60;;;;;;5070111;28;20052;-67
2024/03/21 09:03:52;;;;;;;1.83;1.10;;;22.60;51.60;;;;;;5070381;28;20025;-68
2024/03/21 09:06:18;;;;;;;1.65;1.00;;;22.70;51.70;;;;;;5069470;28;20036;-68
2024/03/21 09:08:45;;;;;;;1.58;1.00;;;22.70;51.60;;;;;;5069743;28;20012;-68
2024/03/21 09:11:10;;;;;;;1.92;0.98;;;22.70;51.50;;;;;;5068787;28;20093;-68
2024/03/21 09:13:36;;;;;;;2.08;1.10;;;22.80;51.40;;;;;;5070212;28;20123;-65
2024/03/21 09:16:02;;;;;;;1.15;0.80;;;22.80;51.30;;;;;;5068574;28;20028;-66
2024/03/21 09:18:27;;;;;;;1.08;0.82;;;22.90;51.20;;;;;;5070117;28;20039;-65
2024/03/21 09:20:55;;;;;;;1.75;0.93;;;22.90;51.10;;;;;;5069618;28;20471;-65
2024/03/21 09:23:22;;;;;;;2.05;1.20;;;23.00;51.20;;;;;;5069954;28;20051;-65
2024/03/21 09:25:48;;;;;;;1.42;1.00;;;23.10;51.20;;;;;;5070246;28;20464;-65
2024/03/21 09:28:14;;;;;;;1.33;0.90;;;23.10;51.00;;;;;;5061062;28;20119;-65
2024/03/21 09:30:44;;;;;;;1.98;1.15;;;23.20;50.70;;;;;;5068763;28;20025;-66
2024/03/21 09:33:11;;;;;;;1.63;1.00;;;23.20;50.70;;;;;;5070191;28;20083;-66
2024/03/21 09:35:36;;;;;;;1.20;0.80;;;23.20;50.80;;;;;;5069145;28;20500;-66
2024/03/21 09:38:02;;;;;;;1.60;1.02;;;23.20;50.80;;;;;;5069478;28;20060;-65
2024/03/21 09:40:28;;;;;;;1.08;0.80;;;23.30;50.70;;;;;;5080313;28;20031;-65
2024/03/21 09:42:56;;;;;;;1.38;0.90;;;23.30;50.70;;;;;;5051751;28;20032;-65
2024/03/21 09:45:24;;;;;;;1.27;0.93;;;23.30;50.50;;;;;;5068182;28;20020;-65
2024/03/21 09:47:50;;;;;;;1.73;1.00;;;23.30;50.20;;;;;;5071261;28;20551;-65
2024/03/21 09:50:18;;;;;;;3.08;1.13;;;23.20;50.30;;;;;;5073089;28;20464;-65
2024/03/21 09:52:44;;;;;;;1.20;0.98;;;23.20;50.30;;;;;;5073581;28;20088;-66
2024/03/21 09:55:14;;;;;;;1.70;1.00;;;23.20;50.50;;;;;;5073547;28;20111;-66
2024/03/21 09:57:42;;;;;;;1.83;1.02;;;23.20;50.50;;;;;;5073523;28;20035;-65
2024/03/21 10:00:15;;;;;;;1.60;1.00;;;23.10;50.50;;;;;;5072051;28;20526;-65
2024/03/21 10:02:41;;;;;;;2.45;0.90;;;23.10;50.40;;;;;;5073568;28;20044;-66
2024/03/21 10:05:09;;;;;;;1.35;0.93;;;23.10;50.40;;;;;;5073249;28;20040;-66
2024/03/21 10:07:39;;;;;;;1.77;0.98;;;23.10;50.30;;;;;;5072923;28;20028;-66
2024/03/21 10:10:05;;;;;;;1.63;0.80;;;23.10;50.40;;;;;;5073304;28;20028;-66
2024/03/21 10:12:31;;;;;;;1.52;1.00;;;23.10;50.40;;;;;;5073317;28;20070;-65
2024/03/21 10:14:56;;;;;;;1.88;0.93;;;23.10;50.40;;;;;;5072029;28;20044;-64
2024/03/21 10:17:23;;;;;;;1.13;0.88;;;23.10;50.40;;;;;;5072855;28;20016;-65
2024/03/21 10:19:49;;;;;;;1.30;1.00;;;23.10;50.40;;;;;;5072627;28;20476;-65
2024/03/21 10:22:22;;;;;;;1.60;0.90;;;23.10;50.50;;;;;;5072919;28;20342;-65
2024/03/21 10:24:58;;;;;;;1.10;0.82;;;23.10;50.40;;;;;;5073119;28;20021;-65
2024/03/21 10:27:23;;;;;;;1.08;0.70;;;23.10;50.40;;;;;;5072953;28;20484;-65
2024/03/21 10:29:50;;;;;;;1.42;1.02;;;23.10;50.50;;;;;;5072014;28;20056;-65
2024/03/21 10:32:17;;;;;;;1.27;0.88;;;23.10;50.40;;;;;;5072890;28;20033;-64
2024/03/21 10:34:50;;;;;;;1.98;0.90;;;23.10;50.40;;;;;;5072628;28;20024;-65
2024/03/21 10:37:17;;;;;;;1.45;0.90;;;23.10;50.50;;;;;;5072559;28;20025;-64
2024/03/21 10:39:44;;;;;;;1.63;0.98;;;23.10;50.50;;;;;;5072631;28;20040;-65
2024/03/21 10:42:37;;;;;;;1.10;0.80;;;23.10;50.40;;;;;;5072676;28;20548;-65
2024/03/21 10:45:04;;;;;;;2.45;1.00;;;23.10;50.40;;;;;;5044861;28;20090;-64
2024/03/21 10:47:30;;;;;;;1.38;0.90;;;23.10;50.40;;;;;;5072571;28;20503;-65
2024/03/21 10:49:55;;;;;;;1.30;0.90;;;23.10;50.40;;;;;;5071777;28;20060;-65
2024/03/21 10:52:21;;;;;;;1.23;0.82;;;23.10;50.40;;;;;;5072317;28;20080;-64
2024/03/21 10:54:51;;;;;;;1.10;0.80;;;23.10;50.50;;;;;;5072279;28;20056;-64
2024/03/21 10:57:24;;;;;;;1.70;1.10;;;23.10;50.40;;;;;;5072498;28;20024;-65
2024/03/21 11:00:10;;;;;;;1.50;1.00;;;23.10;50.40;;;;;;5070223;28;20033;-64
2024/03/21 11:02:38;;;;;;;1.70;0.95;;;23.00;50.90;;;;;;5072456;28;20350;-64
2024/03/21 11:05:13;;;;;;;2.00;1.10;;;23.10;50.50;;;;;;5071956;28;20371;-66
2024/03/21 11:07:39;;;;;;;1.25;0.90;;;23.10;50.50;;;;;;5072055;28;20171;-65
2024/03/21 11:10:08;;;;;;;2.50;1.00;;;23.00;50.50;;;;;;5072266;28;20033;-65
2024/03/21 11:12:35;;;;;;;1.65;1.13;;;23.00;50.50;;;;;;5071963;28;20036;-65
2024/03/21 11:15:00;;;;;;;2.20;1.00;;;23.00;50.50;;;;;;5070881;28;20067;-65
2024/03/21 11:17:26;;;;;;;1.27;0.85;;;23.00;50.50;;;;;;5071185;28;20037;-65
2024/03/21 11:19:52;;;;;;;1.60;1.10;;;23.00;50.50;;;;;;5072056;28;20039;-65
2024/03/21 11:22:18;;;;;;;2.33;1.00;;;23.00;50.50;;;;;;5071357;28;20029;-65
2024/03/21 11:24:44;;;;;;;1.20;0.90;;;23.00;50.50;;;;;;5072177;28;20107;-64
2024/03/21 11:27:17;;;;;;;1.35;0.98;;;23.00;50.40;;;;;;5071870;28;20028;-65
2024/03/21 11:29:43;;;;;;;1.52;1.00;;;23.00;50.40;;;;;;5071504;28;20097;-66
2024/03/21 11:32:09;;;;;;;1.17;0.80;;;23.00;50.40;;;;;;5071189;28;20116;-64
2024/03/21 11:34:41;;;;;;;1.75;1.00;;;23.00;50.40;;;;;;5071784;28;20116;-64
2024/03/21 11:37:13;;;;;;;0.98;0.80;;;23.00;50.40;;;;;;5070697;28;20432;-65
2024/03/21 11:39:39;;;;;;;1.17;0.90;;;23.00;50.40;;;;;;5071347;28;20361;-65
2024/03/21 11:42:09;;;;;;;0.85;0.80;;;23.00;50.40;;;;;;5070860;28;20035;-66
2024/03/21 11:44:41;;;;;;;1.13;0.80;;;23.00;50.40;;;;;;5071449;28;20031;-65
2024/03/21 11:47:15;;;;;;;1.55;0.95;;;23.00;50.40;;;;;;5070161;28;20032;-66
2024/03/21 11:49:41;;;;;;;1.35;0.90;;;23.00;50.50;;;;;;5071223;28;20383;-65
2024/03/21 11:52:15;;;;;;;1.17;0.80;;;23.00;50.50;;;;;;5070916;28;20035;-66
2024/03/21 11:54:42;;;;;;;1.20;0.90;;;23.00;50.50;;;;;;5071007;28;20029;-65
2024/03/21 11:57:12;;;;;;;2.22;1.00;;;23.00;50.50;;;;;;5071195;28;20051;-65
2024/03/21 11:59:40;;;;;;;1.98;1.10;;;23.00;50.60;;;;;;5071266;28;20509;-65
2024/03/21 12:02:14;;;;;;;1.60;1.00;;;23.00;50.60;;;;;;5069770;28;20416;-65
2024/03/21 12:04:40;;;;;;;1.05;0.80;;;23.00;50.60;;;;;;5070739;28;20028;-65
2024/03/21 12:07:14;;;;;;;1.45;0.90;;;23.00;50.60;;;;;;5068964;28;20545;-66
2024/03/21 12:09:40;;;;;;;1.88;1.00;;;23.00;50.60;;;;;;5070604;28;20468;-65
2024/03/21 12:12:09;;;;;;;1.52;0.90;;;23.00;50.60;;;;;;5070744;28;20040;-65
2024/03/21 12:14:35;;;;;;;1.95;1.10;;;23.00;50.60;;;;;;5070617;28;20032;-65
2024/03/21 12:17:01;;;;;;;1.85;1.00;;;23.00;50.50;;;;;;5070137;28;20048;-66
2024/03/21 12:19:27;;;;;;;1.45;1.00;;;23.00;50.60;;;;;;5070726;28;20050;-65
2024/03/21 12:21:53;;;;;;;1.50;0.90;;;23.00;50.60;;;;;;5070396;28;20021;-64
2024/03/21 12:24:20;;;;;;;1.30;0.90;;;23.00;50.60;;;;;;5052466;28;20020;-65
2024/03/21 12:26:45;;;;;;;2.13;1.20;;;23.10;50.60;;;;;;5070795;28;20021;-65
2024/03/21 12:29:11;;;;;;;2.13;1.40;;;23.10;50.30;;;;;;5070444;28;20528;-65
2024/03/21 12:31:37;;;;;;;3.28;1.80;;;23.20;49.50;;;;;;5051370;28;20476;-65
2024/03/21 12:34:03;;;;;;;3.13;1.50;;;23.10;48.60;;;;;;5070779;28;20078;-66
2024/03/21 12:36:28;;;;;;;2.08;1.50;;;23.20;48.50;;;;;;5059317;28;20024;-65
2024/03/21 12:38:54;;;;;;;1.98;1.10;;;23.10;48.60;;;;;;5070248;28;20024;-65
2024/03/21 12:41:19;;;;;;;2.03;1.30;;;23.10;48.60;;;;;;5070705;28;20151;-63
2024/03/21 12:43:45;;;;;;;2.38;1.40;;;23.10;48.80;;;;;;5070468;28;20025;-64
2024/03/21 12:46:14;;;;;;;1.60;1.10;;;23.10;48.90;;;;;;5069396;28;20101;-64
2024/03/21 12:48:42;;;;;;;1.83;1.20;;;23.10;49.10;;;;;;5070645;28;20503;-65